Time;durP1;ratioP1;P1;durP2;ratioP2;P2;SDS_P1;SDS_P2;PMS_P1;PMS_P2;Temp;Humidity;BMP_temperature;BMP_pressure;BME280_temperature;BME280_humidity;BME280_pressure;Samples;Min_cycle;Max_cycle;Signal;HPM_P1;HPM_P2
2021/12/02 00:03:51;;;;;;;;;;;;;;;20.87;50.36;98863.13;20461147;28;99740;-57
2021/12/02 00:23:53;;;;;;;;;;;;;;;20.81;50.87;98847.97;20471965;28;101620;-57
2021/12/02 00:33:56;;;;;;;;;;;;;;;20.77;50.79;98853.50;20455036;28;100378;-57
2021/12/02 00:43:57;;;;;;;;;;;;;;;20.75;50.12;98854.66;20467736;28;97888;-57
2021/12/02 00:54:01;;;;;;;;;;;;;;;20.74;50.57;98843.31;20517423;28;101056;-57
2021/12/02 01:04:11;;;;;;;;;;;;;;;20.72;50.52;98852.34;20465221;28;97720;-57
2021/12/02 01:14:13;;;;;;;;;;;;;;;20.70;50.50;98860.38;20546184;28;97591;-57
2021/12/02 01:24:14;;;;;;;;;;;;;;;20.68;50.33;98861.47;20551534;28;97747;-57
2021/12/02 01:34:21;;;;;;;;;;;;;;;20.66;51.07;98852.94;20549428;28;98630;-57
2021/12/02 01:44:22;;;;;;;;;;;;;;;20.62;50.78;98847.16;20532378;28;97723;-57
2021/12/02 01:54:24;;;;;;;;;;;;;;;20.60;51.05;98843.81;20549911;28;100289;-60
2021/12/02 02:04:25;;;;;;;;;;;;;;;20.58;50.59;98840.50;20539608;28;97697;-58
2021/12/02 02:14:26;;;;;;;;;;;;;;;20.56;50.54;98832.78;20549786;27;100033;-58
2021/12/02 02:24:28;;;;;;;;;;;;;;;20.55;50.80;98840.84;20546459;28;101607;-58
2021/12/02 02:34:28;;;;;;;;;;;;;;;20.54;50.68;98828.66;20541323;28;101923;-57
2021/12/02 02:44:32;;;;;;;;;;;;;;;20.52;50.37;98825.34;20535105;28;98586;-57
2021/12/02 02:54:34;;;;;;;;;;;;;;;20.51;50.71;98823.69;20453124;28;97360;-57
2021/12/02 03:05:25;;;;;;;;;;;;;;;20.50;50.54;98820.25;20462550;28;97931;-58
2021/12/02 03:25:03;;;;;;;;;;;;;;;20.48;50.33;98817.78;20458584;28;101480;-57
2021/12/02 03:35:04;;;;;;;;;;;;;;;20.46;50.50;98822.34;20454160;28;98369;-59
2021/12/02 03:45:04;;;;;;;;;;;;;;;20.45;50.73;98812.81;20470739;28;97776;-58
2021/12/02 03:55:06;;;;;;;;;;;;;;;20.43;50.32;98820.06;20470587;28;100004;-58
2021/12/02 04:05:06;;;;;;;;;;;;;;;20.42;50.76;98812.28;20471120;28;101903;-58
2021/12/02 04:15:12;;;;;;;;;;;;;;;20.42;50.67;98814.91;20475455;28;100803;-58
2021/12/02 04:25:13;;;;;;;;;;;;;;;20.39;50.75;98826.56;20465990;28;101355;-58
2021/12/02 04:35:15;;;;;;;;;;;;;;;20.37;50.21;98828.50;20471999;28;98296;-59
2021/12/02 04:45:16;;;;;;;;;;;;;;;20.35;50.71;98825.22;20470550;28;100419;-59
2021/12/02 04:55:16;;;;;;;;;;;;;;;20.35;50.68;98821.75;20520778;28;98613;-58
2021/12/02 05:05:17;;;;;;;;;;;;;;;20.32;50.64;98807.13;20473536;28;99154;-58
2021/12/02 05:15:18;;;;;;;;;;;;;;;20.47;51.04;98807.44;20451869;28;100977;-58
2021/12/02 05:25:18;;;;;;;;;;;;;;;20.66;50.99;98816.91;20465598;28;97768;-59
2021/12/02 05:35:19;;;;;;;;;;;;;;;20.92;51.06;98818.75;20463958;28;100618;-58
2021/12/02 05:45:19;;;;;;;;;;;;;;;21.08;52.52;98816.22;20485179;28;101305;-59
2021/12/02 05:55:20;;;;;;;;;;;;;;;21.24;52.67;98804.13;20457414;28;99586;-59
2021/12/02 06:05:21;;;;;;;;;;;;;;;21.35;51.60;98803.84;20450914;28;101154;-59
2021/12/02 06:15:22;;;;;;;;;;;;;;;21.39;51.31;98823.59;20453603;28;100488;-59
2021/12/02 06:35:22;;;;;;;;;;;;;;;21.46;51.09;98808.00;20454368;28;100351;-61
2021/12/02 06:45:22;;;;;;;;;;;;;;;21.51;51.28;98816.25;20460877;22;100807;-76
2021/12/02 06:55:23;;;;;;;;;;;;;;;21.57;51.55;98820.91;20465537;28;97878;-77
2021/12/02 07:05:23;;;;;;;;;;;;;;;21.54;50.77;98836.16;20468630;28;96927;-77
2021/12/02 07:15:41;;;;;;;;;;;;;;;21.58;52.23;98862.06;20476276;28;98388;-76
2021/12/02 07:25:42;;;;;;;;;;;;;;;21.59;51.60;98866.38;20477749;28;97204;-79
2021/12/02 07:35:42;;;;;;;;;;;;;;;21.54;50.69;98858.06;20493871;28;98548;-79
2021/12/02 07:45:42;;;;;;;;;;;;;;;21.54;50.70;98855.41;20489824;28;99327;-81
2021/12/02 07:55:44;;;;;;;;;;;;;;;21.61;51.67;98866.19;20392152;28;99040;-78
2021/12/02 08:05:44;;;;;;;;;;;;;;;21.60;51.24;98869.81;20415062;28;97289;-79
2021/12/02 08:15:45;;;;;;;;;;;;;;;21.51;50.28;98874.19;20385998;28;96963;-77
2021/12/02 08:25:45;;;;;;;;;;;;;;;21.61;50.65;98882.00;20397197;28;97170;-77
2021/12/02 08:35:46;;;;;;;;;;;;;;;21.58;50.72;98892.84;20399126;28;97088;-76
2021/12/02 08:45:46;;;;;;;;;;;;;;;21.55;50.49;98908.94;20402681;28;97458;-77
2021/12/02 08:55:47;;;;;;;;;;;;;;;21.53;50.77;98913.53;20402485;28;97144;-75
2021/12/02 09:05:47;;;;;;;;;;;;;;;21.53;50.51;98906.47;20398047;28;100284;-75
2021/12/02 09:15:48;;;;;;;;;;;;;;;21.52;50.23;98893.44;20387522;28;97650;-76
2021/12/02 09:25:48;;;;;;;;;;;;;;;21.51;50.11;98870.75;20395145;28;96959;-76
2021/12/02 09:35:49;;;;;;;;;;;;;;;21.51;50.22;98863.66;20398234;28;97201;-75
2021/12/02 09:45:50;;;;;;;;;;;;;;;21.48;49.85;98858.69;20404975;28;97134;-76
2021/12/02 10:05:58;;;;;;;;;;;;;;;21.47;49.89;98835.16;20404173;28;96933;-76
2021/12/02 10:16:06;;;;;;;;;;;;;;;21.47;49.94;98833.38;20379760;28;96996;-76
2021/12/02 10:26:09;;;;;;;;;;;;;;;21.44;49.96;98809.97;20363992;28;97259;-75
2021/12/02 10:36:28;;;;;;;;;;;;;;;21.43;50.03;98806.53;20360918;28;98379;-75
2021/12/02 10:46:29;;;;;;;;;;;;;;;21.44;49.63;98804.69;20398067;28;97188;-74
2021/12/02 10:56:36;;;;;;;;;;;;;;;21.42;49.70;98799.59;20395140;28;97194;-75
2021/12/02 11:06:41;;;;;;;;;;;;;;;21.39;49.37;98783.28;20400329;28;96998;-75
2021/12/02 11:16:41;;;;;;;;;;;;;;;21.39;49.32;98762.22;20380160;28;96949;-75
2021/12/02 11:26:41;;;;;;;;;;;;;;;21.38;49.73;98760.56;20363124;28;97177;-76
2021/12/02 11:36:42;;;;;;;;;;;;;;;21.35;49.40;98745.94;20384868;28;99068;-76
2021/12/02 11:46:42;;;;;;;;;;;;;;;21.37;49.26;98751.03;20400827;28;97526;-76
2021/12/02 11:56:43;;;;;;;;;;;;;;;21.36;49.10;98741.47;20387235;28;97700;-77
2021/12/02 12:06:46;;;;;;;;;;;;;;;21.36;48.96;98726.53;20398975;28;97210;-76
2021/12/02 12:16:48;;;;;;;;;;;;;;;21.35;49.25;98724.88;20391993;28;100947;-77
2021/12/02 12:26:50;;;;;;;;;;;;;;;21.34;48.91;98722.41;20385523;28;101314;-76
2021/12/02 12:36:51;;;;;;;;;;;;;;;21.35;48.37;98706.44;20399532;28;97210;-76
2021/12/02 12:46:55;;;;;;;;;;;;;;;21.39;48.38;98706.94;20400747;28;97514;-78
2021/12/02 12:57:05;;;;;;;;;;;;;;;21.44;48.77;98715.97;20410080;28;97691;-78
2021/12/02 13:07:09;;;;;;;;;;;;;;;21.44;48.99;98712.53;20399243;28;100490;-77
2021/12/02 13:17:28;;;;;;;;;;;;;;;21.39;48.96;98691.94;20402664;28;97790;-78
2021/12/02 13:27:29;;;;;;;;;;;;;;;21.39;49.14;98701.66;20396457;28;97041;-77
2021/12/02 13:37:29;;;;;;;;;;;;;;;19.85;41.96;98700.50;20396064;28;96956;-76
2021/12/02 13:47:32;;;;;;;;;;;;;;;20.43;43.66;98714.88;20393059;28;100878;-77
2021/12/02 13:57:35;;;;;;;;;;;;;;;20.67;44.74;98707.31;20393021;28;98055;-76
2021/12/02 14:07:37;;;;;;;;;;;;;;;20.81;45.81;98698.81;20390927;28;98994;-77
2021/12/02 14:17:56;;;;;;;;;;;;;;;20.78;46.63;98699.16;20379445;28;97036;-76
2021/12/02 14:28:10;;;;;;;;;;;;;;;20.89;46.67;98684.91;20398296;28;96919;-76
2021/12/02 14:38:37;;;;;;;;;;;;;;;20.91;47.25;98694.28;20392556;28;97002;-77
2021/12/02 14:48:38;;;;;;;;;;;;;;;20.92;47.61;98732.78;20393691;28;98491;-77
2021/12/02 14:58:38;;;;;;;;;;;;;;;20.93;47.93;98744.09;20362550;28;97232;-77
2021/12/02 15:08:39;;;;;;;;;;;;;;;20.93;47.60;98738.84;20386385;28;98753;-78
2021/12/02 15:18:42;;;;;;;;;;;;;;;21.08;47.59;98732.00;20383326;28;96972;-79
2021/12/02 15:28:45;;;;;;;;;;;;;;;21.18;47.84;98729.25;20387277;28;97843;-78
2021/12/02 15:38:48;;;;;;;;;;;;;;;21.21;48.03;98715.75;20375005;28;99176;-78
2021/12/02 15:48:50;;;;;;;;;;;;;;;21.22;48.21;98711.34;20414350;28;96865;-77
2021/12/02 15:58:51;;;;;;;;;;;;;;;21.22;47.86;98711.34;20409745;28;97275;-77
2021/12/02 16:19:05;;;;;;;;;;;;;;;21.21;48.01;98721.03;20397340;28;97638;-74
2021/12/02 16:29:05;;;;;;;;;;;;;;;21.34;49.75;98740.84;20379436;28;101544;-75
2021/12/02 16:39:06;;;;;;;;;;;;;;;21.41;50.47;98753.19;20364444;28;99785;-75
2021/12/02 16:49:07;;;;;;;;;;;;;;;21.49;49.95;98762.91;20403056;28;99612;-76
2021/12/02 16:59:07;;;;;;;;;;;;;;;21.54;50.62;98754.53;20392708;28;96898;-75
2021/12/02 17:09:08;;;;;;;;;;;;;;;21.61;50.62;98752.13;20373281;28;96992;-77
2021/12/02 17:19:08;;;;;;;;;;;;;;;21.68;50.92;98732.88;20387453;28;97651;-77
2021/12/02 17:29:09;;;;;;;;;;;;;;;21.71;50.66;98724.63;20390887;28;101639;-77
2021/12/02 17:39:10;;;;;;;;;;;;;;;21.78;50.58;98724.00;20374847;28;97054;-77
2021/12/02 17:49:10;;;;;;;;;;;;;;;21.87;51.40;98725.63;20377798;28;98293;-76
2021/12/02 17:59:11;;;;;;;;;;;;;;;21.99;53.55;98718.25;20378149;28;98535;-74
2021/12/02 18:09:11;;;;;;;;;;;;;;;22.06;51.80;98706.03;20385397;28;100553;-77
2021/12/02 18:19:12;;;;;;;;;;;;;;;22.09;51.85;98702.25;20367329;28;99685;-77
2021/12/02 18:29:13;;;;;;;;;;;;;;;22.14;51.81;98687.59;20382079;28;101021;-77
2021/12/02 18:39:14;;;;;;;;;;;;;;;22.14;51.08;98673.56;20369867;28;97557;-79
2021/12/02 18:49:16;;;;;;;;;;;;;;;22.17;50.87;98636.34;20381241;28;101342;-82
2021/12/02 18:59:17;;;;;;;;;;;;;;;22.04;49.70;98632.38;20350881;28;99750;-76
2021/12/02 19:30:04;;;;;;;;;;;;;;;22.17;50.66;98642.44;20374067;28;100733;-79
2021/12/02 19:40:05;;;;;;;;;;;;;;;22.27;51.20;98615.06;20384304;28;98032;-81
2021/12/02 19:50:06;;;;;;;;;;;;;;;22.18;50.86;98630.06;20339672;28;99034;-77
2021/12/02 20:00:09;;;;;;;;;;;;;;;22.19;50.45;98673.88;20364155;28;97407;-78
2021/12/02 20:10:11;;;;;;;;;;;;;;;22.05;50.33;98683.31;20345476;28;100863;-77
2021/12/02 20:20:17;;;;;;;;;;;;;;;22.11;50.89;98671.28;20331885;28;97211;-77
2021/12/02 20:30:18;;;;;;;;;;;;;;;22.16;50.95;98674.25;20363334;28;97781;-77
2021/12/02 20:40:19;;;;;;;;;;;;;;;22.18;51.04;98683.63;20349186;28;99912;-77
2021/12/02 20:50:21;;;;;;;;;;;;;;;22.14;51.69;98690.22;20368582;28;101074;-77
2021/12/02 21:00:23;;;;;;;;;;;;;;;22.11;51.44;98695.00;20349113;28;101454;-80
2021/12/02 21:10:28;;;;;;;;;;;;;;;21.98;52.03;98683.13;20347933;28;100498;-79
2021/12/02 21:20:32;;;;;;;;;;;;;;;21.89;52.31;98668.34;20376070;28;97717;-79
2021/12/02 21:30:32;;;;;;;;;;;;;;;21.83;52.34;98669.81;20376331;28;98333;-80
2021/12/02 21:40:33;;;;;;;;;;;;;;;21.78;52.16;98671.31;20372780;28;97692;-79
2021/12/02 21:50:33;;;;;;;;;;;;;;;21.70;52.30;98674.75;20343209;28;97855;-78
2021/12/02 22:00:41;;;;;;;;;;;;;;;21.66;52.45;98683.97;20340285;28;99872;-78
2021/12/02 22:10:42;;;;;;;;;;;;;;;21.58;52.73;98667.16;20365018;28;100012;-77
2021/12/02 22:20:43;;;;;;;;;;;;;;;21.54;52.28;98686.88;20361711;28;100873;-78
2021/12/02 22:30:43;;;;;;;;;;;;;;;21.49;52.71;98714.69;20345807;28;98651;-78
2021/12/02 22:40:44;;;;;;;;;;;;;;;21.44;52.75;98731.78;20365055;28;100131;-78
2021/12/02 22:50:46;;;;;;;;;;;;;;;21.41;52.98;98747.06;20349428;28;101496;-77
2021/12/02 23:00:50;;;;;;;;;;;;;;;21.37;52.44;98754.50;20338869;28;99691;-78
2021/12/02 23:10:52;;;;;;;;;;;;;;;21.34;53.15;98778.50;20349083;28;99220;-79
2021/12/02 23:20:52;;;;;;;;;;;;;;;21.31;52.86;98783.25;20358491;28;100515;-79
2021/12/02 23:30:59;;;;;;;;;;;;;;;21.26;52.91;98786.34;20360825;28;97153;-78
2021/12/02 23:41:01;;;;;;;;;;;;;;;21.24;52.88;98765.47;20353328;28;98174;-78
2021/12/02 23:51:02;;;;;;;;;;;;;;;21.22;53.05;98777.94;20362088;28;100798;-78
